createdAt,value
2018-02-24T00:00:58.015Z,1023.23
2018-02-24T00:02:49.822Z,1023.23
2018-02-24T00:03:49.666Z,1023.18
2018-02-24T00:05:41.405Z,1023.17
2018-02-24T00:06:41.324Z,1023.18
2018-02-24T00:08:33.081Z,1023.18
2018-02-24T00:09:33.009Z,1023.15
2018-02-24T00:11:24.803Z,1023.08
2018-02-24T00:12:24.712Z,1023.05
2018-02-24T00:14:16.483Z,1023.06
2018-02-24T00:15:16.399Z,1023.05
2018-02-24T00:17:08.138Z,1023.11
2018-02-24T00:18:08.049Z,1023.11
2018-02-24T00:19:59.785Z,1023.13
2018-02-24T00:20:59.711Z,1023.15
2018-02-24T00:22:52.170Z,1023.16
2018-02-24T00:23:51.533Z,1023.14
2018-02-24T00:25:43.211Z,1023.19
2018-02-24T00:26:43.124Z,1023.17
2018-02-24T00:28:34.871Z,1023.13
2018-02-24T00:29:34.815Z,1023.16
2018-02-24T00:31:26.557Z,1023.09
2018-02-24T00:32:26.508Z,1023.14
2018-02-24T00:34:18.202Z,1023.10
2018-02-24T00:35:18.129Z,1023.16
2018-02-24T00:37:09.882Z,1023.10
2018-02-24T00:38:09.793Z,1023.14
2018-02-24T00:40:01.532Z,1023.15
2018-02-24T00:41:01.457Z,1023.08
2018-02-24T00:42:53.263Z,1023.10
2018-02-24T00:43:53.175Z,1023.15
2018-02-24T00:45:44.915Z,1023.15
2018-02-24T00:46:44.880Z,1023.14
2018-02-24T00:48:36.588Z,1023.15
2018-02-24T00:49:36.504Z,1023.13
2018-02-24T00:51:28.241Z,1023.07
2018-02-24T00:52:28.158Z,1023.08
2018-02-24T00:54:19.917Z,1023.04
2018-02-24T00:55:19.824Z,1023.08
2018-02-24T00:57:11.570Z,1023.00
2018-02-24T00:58:11.497Z,1022.99
2018-02-24T01:00:03.282Z,1022.94
2018-02-24T01:01:03.187Z,1022.96
2018-02-24T01:02:54.942Z,1022.92
2018-02-24T01:03:54.859Z,1022.94
2018-02-24T01:05:46.613Z,1022.90
2018-02-24T01:06:46.534Z,1022.86
2018-02-24T01:08:38.290Z,1022.85
2018-02-24T01:09:38.249Z,1022.81
2018-02-24T01:11:29.931Z,1022.80
2018-02-24T01:12:29.859Z,1022.84
2018-02-24T01:14:21.614Z,1022.85
2018-02-24T01:15:21.542Z,1022.82
2018-02-24T01:17:13.275Z,1022.89
2018-02-24T01:18:13.195Z,1022.84
2018-02-24T01:20:04.965Z,1022.85
2018-02-24T01:21:04.865Z,1022.85
2018-02-24T01:22:56.597Z,1022.84
2018-02-24T01:23:56.524Z,1022.83
2018-02-24T01:25:48.270Z,1022.82
2018-02-24T01:26:48.183Z,1022.83
2018-02-24T01:28:39.942Z,1022.79
2018-02-24T01:29:39.859Z,1022.83
2018-02-24T01:31:31.633Z,1022.87
2018-02-24T01:32:31.542Z,1022.90
2018-02-24T01:34:23.296Z,1022.88
2018-02-24T01:35:23.212Z,1022.93
2018-02-24T01:37:14.961Z,1022.94
2018-02-24T01:38:14.875Z,1022.92
2018-02-24T01:40:06.621Z,1022.95
2018-02-24T01:41:06.534Z,1022.99
2018-02-24T01:42:58.314Z,1022.95
2018-02-24T01:43:58.217Z,1022.94
2018-02-24T01:45:49.966Z,1022.95
2018-02-24T01:46:49.880Z,1022.98
2018-02-24T01:48:41.617Z,1022.99
2018-02-24T01:49:41.550Z,1023.05
2018-02-24T01:51:33.299Z,1023.07
2018-02-24T01:52:33.229Z,1023.06
2018-02-24T01:54:24.984Z,1023.10
2018-02-24T01:55:24.906Z,1023.08
2018-02-24T01:57:16.846Z,1023.05
2018-02-24T01:58:16.579Z,1023.06
2018-02-24T02:00:08.339Z,1023.06
2018-02-24T02:01:08.256Z,1023.03
2018-02-24T02:03:00.018Z,1023.07
2018-02-24T02:03:59.933Z,1023.12
2018-02-24T02:05:51.678Z,1023.13
2018-02-24T02:06:51.608Z,1023.11
2018-02-24T02:08:43.429Z,1023.05
2018-02-24T02:09:43.340Z,1023.02
2018-02-24T02:11:35.091Z,1023.07
2018-02-24T02:12:35.008Z,1023.02
2018-02-24T02:14:26.884Z,1023.01
2018-02-24T02:15:26.682Z,1023.04
2018-02-24T02:17:18.433Z,1023.09
2018-02-24T02:18:18.357Z,1023.05
2018-02-24T02:20:10.120Z,1023.14
2018-02-24T02:21:10.021Z,1023.13
2018-02-24T02:23:01.777Z,1023.18
2018-02-24T02:24:01.692Z,1023.19
2018-02-24T02:25:53.436Z,1023.19
2018-02-24T02:26:53.365Z,1023.16
2018-02-24T02:28:45.139Z,1023.18
2018-02-24T02:29:45.044Z,1023.14
2018-02-24T02:31:36.810Z,1023.10
2018-02-24T02:32:36.729Z,1023.12
2018-02-24T02:34:28.489Z,1023.10
2018-02-24T02:35:28.405Z,1023.06
2018-02-24T02:37:20.145Z,1023.04
2018-02-24T02:38:20.067Z,1023.05
2018-02-24T02:40:11.830Z,1023.06
2018-02-24T02:41:11.748Z,1023.04
2018-02-24T02:43:03.482Z,1023.01
2018-02-24T02:44:03.459Z,1022.97
2018-02-24T02:45:55.171Z,1022.92
2018-02-24T02:46:55.093Z,1022.95
2018-02-24T02:48:46.833Z,1023.05
2018-02-24T02:49:46.774Z,1023.00
2018-02-24T02:51:38.524Z,1023.02
2018-02-24T02:52:38.418Z,1023.02
2018-02-24T02:54:30.204Z,1023.06
2018-02-24T02:55:30.107Z,1023.08
2018-02-24T02:57:21.839Z,1023.16
2018-02-24T02:58:21.769Z,1023.13
2018-02-24T03:00:13.525Z,1023.19
2018-02-24T03:01:13.449Z,1023.25
2018-02-24T03:03:05.166Z,1023.28
2018-02-24T03:04:05.106Z,1023.32
2018-02-24T03:05:56.878Z,1023.22
2018-02-24T03:06:56.797Z,1023.22
2018-02-24T03:08:48.545Z,1023.26
2018-02-24T03:09:48.458Z,1023.25
2018-02-24T03:11:40.206Z,1023.23
2018-02-24T03:12:40.121Z,1023.25
2018-02-24T03:14:31.865Z,1023.27
2018-02-24T03:15:31.796Z,1023.25
2018-02-24T03:17:23.615Z,1023.18
2018-02-24T03:18:23.510Z,1023.18
2018-02-24T03:20:15.249Z,1023.22
2018-02-24T03:21:15.177Z,1023.21
2018-02-24T03:23:06.944Z,1023.21
2018-02-24T03:24:06.859Z,1023.25
2018-02-24T03:25:58.601Z,1023.31
2018-02-24T03:26:58.537Z,1023.26
2018-02-24T03:28:50.308Z,1023.23
2018-02-24T03:29:50.214Z,1023.25
2018-02-24T03:31:41.954Z,1023.27
2018-02-24T03:32:41.880Z,1023.24
2018-02-24T03:34:33.662Z,1023.26
2018-02-24T03:35:33.583Z,1023.24
2018-02-24T03:37:25.605Z,1023.24
2018-02-24T03:38:25.244Z,1023.20
2018-02-24T03:40:17.000Z,1023.22
2018-02-24T03:41:16.916Z,1023.22
2018-02-24T03:43:08.688Z,1023.22
2018-02-24T03:44:08.583Z,1023.21
2018-02-24T03:46:00.344Z,1023.22
2018-02-24T03:47:00.268Z,1023.22
2018-02-24T03:48:52.045Z,1023.20
2018-02-24T03:49:51.976Z,1023.20
2018-02-24T03:51:43.715Z,1023.19
2018-02-24T03:52:43.643Z,1023.23
2018-02-24T03:54:35.399Z,1023.23
2018-02-24T03:55:35.299Z,1023.25
2018-02-24T03:57:27.042Z,1023.29
2018-02-24T03:58:26.961Z,1023.31
2018-02-24T04:00:18.732Z,1023.32
2018-02-24T04:01:18.637Z,1023.31
2018-02-24T04:03:10.409Z,1023.31
2018-02-24T04:04:10.333Z,1023.39
2018-02-24T04:06:02.091Z,1023.39
2018-02-24T04:07:02.016Z,1023.40
2018-02-24T04:08:53.947Z,1023.37
2018-02-24T04:09:53.785Z,1023.41
2018-02-24T04:11:45.462Z,1023.41
2018-02-24T04:12:45.350Z,1023.41
2018-02-24T04:14:37.069Z,1023.49
2018-02-24T04:15:37.001Z,1023.45
2018-02-24T04:17:28.788Z,1023.44
2018-02-24T04:18:28.698Z,1023.48
2018-02-24T04:20:20.475Z,1023.51
2018-02-24T04:21:20.368Z,1023.51
2018-02-24T04:23:12.143Z,1023.49
2018-02-24T04:24:12.199Z,1023.53
2018-02-24T04:26:03.944Z,1023.55
2018-02-24T04:27:03.864Z,1023.52
2018-02-24T04:28:55.609Z,1023.51
2018-02-24T04:29:55.529Z,1023.53
2018-02-24T04:31:47.285Z,1023.56
2018-02-24T04:32:47.239Z,1023.59
2018-02-24T04:34:38.985Z,1023.58
2018-02-24T04:35:38.901Z,1023.59
2018-02-24T04:37:30.663Z,1023.53
2018-02-24T04:38:30.574Z,1023.56
2018-02-24T04:40:22.314Z,1023.52
2018-02-24T04:41:22.298Z,1023.55
2018-02-24T04:43:13.981Z,1023.59
2018-02-24T04:44:13.897Z,1023.60
2018-02-24T04:46:05.666Z,1023.61
2018-02-24T04:47:05.706Z,1023.58
2018-02-24T04:48:57.342Z,1023.66
2018-02-24T04:49:57.313Z,1023.63
2018-02-24T04:51:49.012Z,1023.69
2018-02-24T04:52:48.977Z,1023.67
2018-02-24T04:54:40.725Z,1023.75
2018-02-24T04:55:40.618Z,1023.72
2018-02-24T04:57:33.187Z,1023.75
2018-02-24T04:58:32.328Z,1023.78
2018-02-24T05:00:24.057Z,1023.84
2018-02-24T05:01:23.988Z,1023.84
2018-02-24T05:03:15.787Z,1023.84
2018-02-24T05:04:15.824Z,1023.82
2018-02-24T05:06:07.448Z,1023.85
2018-02-24T05:07:07.500Z,1023.90
2018-02-24T05:08:59.231Z,1023.90
2018-02-24T05:09:59.181Z,1023.89
2018-02-24T05:11:50.916Z,1023.90
2018-02-24T05:12:50.834Z,1023.90
2018-02-24T05:14:42.821Z,1023.94
2018-02-24T05:15:42.589Z,1023.91
2018-02-24T05:17:34.851Z,1023.96
2018-02-24T05:18:34.380Z,1023.99
2018-02-24T05:20:26.161Z,1024.00
2018-02-24T05:21:26.073Z,1023.99
2018-02-24T05:23:17.932Z,1023.97
2018-02-24T05:24:17.889Z,1024.00
2018-02-24T05:26:09.506Z,1023.97
2018-02-24T05:27:09.499Z,1024.00
2018-02-24T05:29:01.389Z,1023.99
2018-02-24T05:30:01.261Z,1023.98
2018-02-24T05:31:53.148Z,1024.03
2018-02-24T05:32:52.874Z,1024.03
2018-02-24T05:34:44.671Z,1024.04
2018-02-24T05:35:44.858Z,1024.09
2018-02-24T05:37:36.412Z,1024.06
2018-02-24T05:38:36.520Z,1024.03
2018-02-24T05:40:28.328Z,1024.02
2018-02-24T05:41:28.144Z,1024.06
2018-02-24T05:43:19.768Z,1024.01
2018-02-24T05:44:19.756Z,1024.02
2018-02-24T05:46:11.908Z,1024.02
2018-02-24T05:47:11.710Z,1024.03
2018-02-24T05:49:03.233Z,1024.08
2018-02-24T05:50:03.185Z,1024.12
2018-02-24T05:51:54.917Z,1024.14
2018-02-24T05:52:54.789Z,1024.13
2018-02-24T05:54:46.625Z,1024.14
2018-02-24T05:55:46.571Z,1024.12
2018-02-24T05:57:38.397Z,1024.16
2018-02-24T05:58:38.304Z,1024.14
2018-02-24T06:00:29.996Z,1024.16
2018-02-24T06:01:29.981Z,1024.16
2018-02-24T06:03:21.667Z,1024.19
2018-02-24T06:04:21.622Z,1024.15
2018-02-24T06:06:13.379Z,1024.20
2018-02-24T06:07:13.384Z,1024.18
2018-02-24T06:09:05.056Z,1024.24
2018-02-24T06:10:04.945Z,1024.27
2018-02-24T06:11:56.795Z,1024.26
2018-02-24T06:12:56.625Z,1024.26
2018-02-24T06:14:48.365Z,1024.31
2018-02-24T06:15:48.284Z,1024.30
2018-02-24T06:17:40.070Z,1024.31
2018-02-24T06:18:39.965Z,1024.33
2018-02-24T06:20:31.718Z,1024.39
2018-02-24T06:21:31.666Z,1024.35
2018-02-24T06:23:23.521Z,1024.35
2018-02-24T06:24:23.441Z,1024.38
2018-02-24T06:26:15.193Z,1024.35
2018-02-24T06:27:15.105Z,1024.38
2018-02-24T06:29:07.058Z,1024.34
2018-02-24T06:30:06.913Z,1024.46
2018-02-24T06:31:58.675Z,1024.47
2018-02-24T06:32:58.533Z,1024.46
2018-02-24T06:34:50.296Z,1024.54
2018-02-24T06:35:50.200Z,1024.51
2018-02-24T06:37:41.947Z,1024.49
2018-02-24T06:38:41.860Z,1024.52
2018-02-24T06:40:33.796Z,1024.54
2018-02-24T06:41:33.537Z,1024.61
2018-02-24T06:43:25.303Z,1024.63
2018-02-24T06:44:25.301Z,1024.67
2018-02-24T06:46:16.956Z,1024.66
2018-02-24T06:47:16.887Z,1024.78
2018-02-24T06:49:08.673Z,1024.77
2018-02-24T06:50:08.564Z,1024.79
2018-02-24T06:52:00.295Z,1024.78
2018-02-24T06:53:00.240Z,1024.87
2018-02-24T06:54:51.964Z,1024.87
2018-02-24T06:55:51.883Z,1024.93
2018-02-24T06:57:43.618Z,1024.91
2018-02-24T06:58:43.543Z,1024.93
2018-02-24T07:00:35.311Z,1024.99
2018-02-24T07:01:35.214Z,1024.99
2018-02-24T07:03:26.944Z,1024.97
2018-02-24T07:04:26.870Z,1024.96
2018-02-24T07:06:18.630Z,1024.94
2018-02-24T07:07:18.547Z,1025.00
2018-02-24T07:09:10.328Z,1025.01
2018-02-24T07:10:10.230Z,1025.07
2018-02-24T07:12:02.020Z,1025.08
2018-02-24T07:13:01.899Z,1025.13
2018-02-24T07:14:53.654Z,1025.16
2018-02-24T07:15:53.576Z,1025.10
2018-02-24T07:17:45.314Z,1025.12
2018-02-24T07:18:45.246Z,1025.15
2018-02-24T07:20:37.009Z,1025.17
2018-02-24T07:21:36.942Z,1025.22
2018-02-24T07:23:28.754Z,1025.19
2018-02-24T07:24:28.602Z,1025.17
2018-02-24T07:26:20.355Z,1025.33
2018-02-24T07:27:20.271Z,1025.30
2018-02-24T07:29:12.074Z,1025.38
2018-02-24T07:30:12.012Z,1025.30
2018-02-24T07:32:03.759Z,1025.39
2018-02-24T07:33:03.678Z,1025.46
2018-02-24T07:34:55.476Z,1025.70
2018-02-24T07:35:55.382Z,1025.49
2018-02-24T07:37:47.193Z,1025.51
2018-02-24T07:38:47.036Z,1025.50
2018-02-24T07:40:38.767Z,1025.43
2018-02-24T07:41:38.698Z,1025.47
2018-02-24T07:43:30.445Z,1025.62
2018-02-24T07:44:30.371Z,1025.78
2018-02-24T07:46:22.132Z,1025.67
2018-02-24T07:47:22.201Z,1025.59
2018-02-24T07:49:13.807Z,1025.55
2018-02-24T07:50:13.745Z,1025.47
2018-02-24T07:52:05.532Z,1025.60
2018-02-24T07:53:05.460Z,1025.66
2018-02-24T07:54:57.261Z,1025.52
2018-02-24T07:55:57.147Z,1025.52
2018-02-24T07:57:48.972Z,1025.46
2018-02-24T07:58:48.835Z,1025.47
2018-02-24T08:00:40.612Z,1025.45
2018-02-24T08:01:40.574Z,1025.50
2018-02-24T08:03:32.308Z,1025.69
2018-02-24T08:04:32.231Z,1025.66
2018-02-24T08:06:24.022Z,1025.72
2018-02-24T08:07:23.922Z,1025.82
2018-02-24T08:09:15.677Z,1025.87
2018-02-24T08:10:15.599Z,1025.85
2018-02-24T08:12:07.449Z,1025.95
2018-02-24T08:13:07.316Z,1025.92
2018-02-24T08:14:59.100Z,1026.03
2018-02-24T08:15:59.020Z,1026.01
2018-02-24T08:17:50.833Z,1026.10
2018-02-24T08:18:50.744Z,1026.16
2018-02-24T08:20:42.528Z,1025.86
2018-02-24T08:21:42.469Z,1025.89
2018-02-24T08:23:34.265Z,1025.92
2018-02-24T08:24:34.208Z,1025.74
2018-02-24T08:26:25.957Z,1025.96
2018-02-24T08:27:25.915Z,1025.97
2018-02-24T08:29:17.683Z,1025.94
2018-02-24T08:30:17.613Z,1025.93
2018-02-24T08:32:09.375Z,1025.88
2018-02-24T08:33:09.313Z,1025.75
2018-02-24T08:35:01.090Z,1025.77
2018-02-24T08:36:01.017Z,1025.96
2018-02-24T08:37:52.779Z,1026.05
2018-02-24T08:38:52.807Z,1026.21
2018-02-24T08:40:44.560Z,1026.18
2018-02-24T08:41:44.464Z,1026.26
2018-02-24T08:43:36.217Z,1026.05
2018-02-24T08:44:36.190Z,1025.98
2018-02-24T08:46:27.962Z,1026.21
2018-02-24T08:47:27.890Z,1026.34
2018-02-24T08:49:19.685Z,1026.41
2018-02-24T08:50:19.632Z,1026.27
2018-02-24T08:52:11.405Z,1026.17
2018-02-24T08:53:11.326Z,1026.30
2018-02-24T08:55:03.226Z,1026.35
2018-02-24T08:56:03.164Z,1026.34
2018-02-24T08:57:55.131Z,1026.46
2018-02-24T08:58:54.888Z,1026.52
2018-02-24T09:00:46.715Z,1026.68
2018-02-24T09:01:46.633Z,1026.69
2018-02-24T09:03:38.426Z,1026.65
2018-02-24T09:04:38.359Z,1026.76
2018-02-24T09:06:30.245Z,1026.84
2018-02-24T09:07:30.146Z,1026.76
2018-02-24T09:09:21.904Z,1026.45
2018-02-24T09:10:21.845Z,1026.93
2018-02-24T09:12:13.640Z,1027.14
2018-02-24T09:13:13.616Z,1027.14
2018-02-24T09:15:05.399Z,1027.10
2018-02-24T09:16:05.342Z,1026.85
2018-02-24T09:17:57.229Z,1026.75
2018-02-24T09:18:57.048Z,1026.71
2018-02-24T09:20:48.836Z,1026.57
2018-02-24T09:21:48.784Z,1026.61
2018-02-24T09:23:40.642Z,1026.46
2018-02-24T09:24:40.547Z,1026.33
2018-02-24T09:26:32.332Z,1025.79
2018-02-24T09:27:32.368Z,1025.79
2018-02-24T09:29:24.035Z,1025.79
2018-02-24T09:30:23.975Z,1026.04
2018-02-24T09:32:15.815Z,1025.81
2018-02-24T09:33:15.795Z,1025.96
2018-02-24T09:35:07.654Z,1025.92
2018-02-24T09:36:07.484Z,1025.94
2018-02-24T09:37:59.331Z,1025.98
2018-02-24T09:38:59.198Z,1026.00
2018-02-24T09:40:51.196Z,1025.90
2018-02-24T09:41:51.110Z,1025.94
2018-02-24T09:43:42.935Z,1026.00
2018-02-24T09:44:42.873Z,1025.97
2018-02-24T09:46:34.661Z,1025.92
2018-02-24T09:47:34.671Z,1025.93
2018-02-24T09:49:26.571Z,1025.96
2018-02-24T09:50:26.488Z,1025.91
2018-02-24T09:52:18.370Z,1025.85
2018-02-24T09:53:18.259Z,1025.83
2018-02-24T09:55:09.980Z,1025.85
2018-02-24T09:56:09.924Z,1025.90
2018-02-24T09:58:01.746Z,1025.92
2018-02-24T09:59:01.629Z,1025.96
2018-02-24T10:00:53.401Z,1026.03
2018-02-24T10:01:53.350Z,1026.04
2018-02-24T10:03:45.217Z,1026.03
2018-02-24T10:04:45.285Z,1026.00
2018-02-24T10:06:37.295Z,1026.08
2018-02-24T10:07:37.136Z,1025.93
2018-02-24T10:09:28.938Z,1025.80
2018-02-24T10:10:28.876Z,1025.85
2018-02-24T10:12:20.685Z,1025.91
2018-02-24T10:13:20.809Z,1025.86
2018-02-24T10:15:12.442Z,1025.92
2018-02-24T10:16:12.498Z,1025.93
2018-02-24T10:18:04.742Z,1025.93
2018-02-24T10:19:04.063Z,1025.93
2018-02-24T10:20:55.985Z,1025.96
2018-02-24T10:21:55.902Z,1026.01
2018-02-24T10:23:47.682Z,1025.83
2018-02-24T10:24:47.619Z,1026.01
2018-02-24T10:26:39.525Z,1026.03
2018-02-24T10:27:39.396Z,1025.98
2018-02-24T10:29:31.186Z,1025.99
2018-02-24T10:30:31.111Z,1025.95
2018-02-24T10:32:23.607Z,1025.83
2018-02-24T10:33:22.816Z,1025.84
2018-02-24T10:35:14.609Z,1025.86
2018-02-24T10:36:14.754Z,1025.93
2018-02-24T10:38:06.367Z,1026.03
2018-02-24T10:39:06.260Z,1025.88
2018-02-24T10:40:58.141Z,1025.78
2018-02-24T10:41:58.053Z,1025.84
2018-02-24T10:43:49.864Z,1025.92
2018-02-24T10:44:49.819Z,1025.87
2018-02-24T10:46:41.579Z,1025.87
2018-02-24T10:47:41.516Z,1025.88
2018-02-24T10:49:33.330Z,1025.84
2018-02-24T10:50:33.263Z,1025.76
2018-02-24T10:52:25.063Z,1025.86
2018-02-24T10:53:24.987Z,1025.83
2018-02-24T10:55:16.743Z,1025.78
2018-02-24T10:56:16.686Z,1025.82
2018-02-24T10:58:08.507Z,1025.86
2018-02-24T10:59:08.436Z,1025.77
2018-02-24T11:01:00.201Z,1025.76
2018-02-24T11:02:00.270Z,1025.66
2018-02-24T11:03:51.906Z,1025.64
2018-02-24T11:04:51.807Z,1025.72
2018-02-24T11:06:43.587Z,1025.51
2018-02-24T11:07:43.579Z,1025.58
2018-02-24T11:09:35.459Z,1025.55
2018-02-24T11:10:35.296Z,1025.57
2018-02-24T11:12:27.118Z,1025.55
2018-02-24T11:13:26.953Z,1025.54
2018-02-24T11:15:18.843Z,1025.52
2018-02-24T11:16:18.791Z,1025.49
2018-02-24T11:18:10.628Z,1025.51
2018-02-24T11:19:10.442Z,1025.58
2018-02-24T11:21:02.228Z,1025.59
2018-02-24T11:22:02.153Z,1025.54
2018-02-24T11:23:54.028Z,1025.48
2018-02-24T11:24:53.915Z,1025.51
2018-02-24T11:26:45.702Z,1025.46
2018-02-24T11:27:45.596Z,1025.34
2018-02-24T11:29:37.575Z,1025.30
2018-02-24T11:30:37.402Z,1025.43
2018-02-24T11:32:29.190Z,1025.53
2018-02-24T11:33:29.087Z,1025.37
2018-02-24T11:35:20.903Z,1025.33
2018-02-24T11:36:20.917Z,1025.24
2018-02-24T11:38:12.597Z,1025.52
2018-02-24T11:39:12.516Z,1025.47
2018-02-24T11:41:04.406Z,1025.44
2018-02-24T11:42:04.220Z,1025.50
2018-02-24T11:43:56.116Z,1025.44
2018-02-24T11:44:55.892Z,1025.39
2018-02-24T11:46:47.911Z,1025.50
2018-02-24T11:47:47.840Z,1025.52
2018-02-24T11:49:39.696Z,1025.47
2018-02-24T11:50:39.621Z,1025.56
2018-02-24T11:52:31.393Z,1025.32
2018-02-24T11:53:31.282Z,1025.60
2018-02-24T11:55:23.093Z,1025.52
2018-02-24T11:56:23.007Z,1025.41
2018-02-24T11:58:14.855Z,1025.51
2018-02-24T11:59:14.791Z,1025.54
2018-02-24T12:01:06.625Z,1025.59
2018-02-24T12:02:06.561Z,1025.51
2018-02-24T12:03:58.233Z,1025.52
2018-02-24T12:04:58.405Z,1025.60
2018-02-24T12:06:50.055Z,1025.48
2018-02-24T12:07:49.954Z,1025.47
2018-02-24T12:09:42.006Z,1025.47
2018-02-24T12:10:41.912Z,1025.37
2018-02-24T12:12:33.658Z,1025.42
2018-02-24T12:13:33.735Z,1025.41
2018-02-24T12:15:25.542Z,1025.47
2018-02-24T12:16:25.330Z,1025.49
2018-02-24T12:18:17.229Z,1025.42
2018-02-24T12:19:17.043Z,1025.59
2018-02-24T12:21:08.934Z,1025.40
2018-02-24T12:22:08.749Z,1025.42
2018-02-24T12:24:00.498Z,1025.38
2018-02-24T12:25:00.408Z,1025.42
2018-02-24T12:26:52.336Z,1025.45
2018-02-24T12:27:52.257Z,1025.46
2018-02-24T12:29:44.008Z,1025.50
2018-02-24T12:30:43.936Z,1025.39
2018-02-24T12:32:35.754Z,1025.43
2018-02-24T12:33:35.676Z,1025.44
2018-02-24T12:35:27.449Z,1025.43
2018-02-24T12:36:27.433Z,1025.50
2018-02-24T12:38:19.178Z,1025.39
2018-02-24T12:39:19.080Z,1025.54
2018-02-24T12:41:10.811Z,1025.40
2018-02-24T12:42:10.733Z,1025.47
2018-02-24T12:44:02.533Z,1025.45
2018-02-24T12:45:02.448Z,1025.46
2018-02-24T12:46:54.262Z,1025.51
2018-02-24T12:47:54.323Z,1025.45
2018-02-24T12:49:46.019Z,1025.55
2018-02-24T12:50:45.914Z,1025.50
2018-02-24T12:52:37.716Z,1025.72
2018-02-24T12:53:37.640Z,1025.45
2018-02-24T12:55:29.734Z,1025.53
2018-02-24T12:56:29.482Z,1025.46
2018-02-24T12:58:21.241Z,1025.55
2018-02-24T12:59:21.161Z,1025.40
2018-02-24T13:01:13.003Z,1025.54
2018-02-24T13:02:12.983Z,1025.49
2018-02-24T13:04:04.673Z,1025.41
2018-02-24T13:05:04.563Z,1025.44
2018-02-24T13:06:56.445Z,1025.45
2018-02-24T13:07:56.336Z,1025.44
2018-02-24T13:09:48.081Z,1025.46
2018-02-24T13:10:48.033Z,1025.49
2018-02-24T13:12:39.993Z,1025.55
2018-02-24T13:13:39.772Z,1025.58
2018-02-24T13:15:31.593Z,1025.67
2018-02-24T13:16:31.515Z,1025.64
2018-02-24T13:18:23.228Z,1025.58
2018-02-24T13:19:23.148Z,1025.58
2018-02-24T13:21:14.956Z,1025.63
2018-02-24T13:22:14.876Z,1025.65
2018-02-24T13:24:06.704Z,1025.61
2018-02-24T13:25:06.594Z,1025.53
2018-02-24T13:26:58.322Z,1025.48
2018-02-24T13:27:58.259Z,1025.66
2018-02-24T13:29:50.018Z,1025.56
2018-02-24T13:30:49.932Z,1025.63
2018-02-24T13:32:41.800Z,1025.76
2018-02-24T13:33:41.675Z,1025.68
2018-02-24T13:35:33.531Z,1025.70
2018-02-24T13:36:33.445Z,1025.66
2018-02-24T13:38:25.359Z,1025.72
2018-02-24T13:39:25.134Z,1025.70
2018-02-24T13:41:16.879Z,1025.70
2018-02-24T13:42:16.804Z,1025.51
2018-02-24T13:44:08.572Z,1025.62
2018-02-24T13:45:08.486Z,1025.70
2018-02-24T13:47:00.231Z,1025.70
2018-02-24T13:48:00.219Z,1025.73
2018-02-24T13:49:51.951Z,1025.70
2018-02-24T13:50:51.897Z,1025.70
2018-02-24T13:52:43.609Z,1025.72
2018-02-24T13:53:43.540Z,1025.64
2018-02-24T13:55:35.597Z,1025.69
2018-02-24T13:56:35.233Z,1025.65
2018-02-24T13:58:27.187Z,1025.63
2018-02-24T13:59:26.923Z,1025.73
2018-02-24T14:01:18.718Z,1025.70
2018-02-24T14:02:18.643Z,1025.67
2018-02-24T14:04:10.457Z,1025.66
2018-02-24T14:05:10.301Z,1025.65
2018-02-24T14:07:02.102Z,1025.69
2018-02-24T14:08:02.159Z,1025.67
2018-02-24T14:09:53.789Z,1025.68
2018-02-24T14:10:53.728Z,1025.68
2018-02-24T14:12:45.487Z,1025.63
2018-02-24T14:13:45.419Z,1025.66
2018-02-24T14:15:37.177Z,1025.63
2018-02-24T14:16:37.096Z,1025.73
2018-02-24T14:18:28.869Z,1025.68
2018-02-24T14:19:28.789Z,1025.70
2018-02-24T14:21:20.592Z,1025.71
2018-02-24T14:22:20.478Z,1025.72
2018-02-24T14:24:12.261Z,1025.82
2018-02-24T14:25:12.198Z,1025.94
2018-02-24T14:27:03.954Z,1025.82
2018-02-24T14:28:03.873Z,1025.87
2018-02-24T14:29:55.645Z,1025.82
2018-02-24T14:30:55.561Z,1025.86
2018-02-24T14:32:47.310Z,1025.84
2018-02-24T14:33:47.338Z,1025.77
2018-02-24T14:35:39.021Z,1025.83
2018-02-24T14:36:38.926Z,1025.87
2018-02-24T14:38:31.290Z,1025.84
2018-02-24T14:39:30.721Z,1025.73
2018-02-24T14:41:22.485Z,1025.96
2018-02-24T14:42:22.396Z,1025.83
2018-02-24T14:44:14.171Z,1025.80
2018-02-24T14:45:14.147Z,1025.67
2018-02-24T14:47:05.933Z,1025.77
2018-02-24T14:48:05.836Z,1025.86
2018-02-24T14:49:57.587Z,1025.80
2018-02-24T14:50:57.516Z,1025.82
2018-02-24T14:52:49.318Z,1025.84
2018-02-24T14:53:49.264Z,1025.86
2018-02-24T14:55:40.988Z,1025.73
2018-02-24T14:56:40.950Z,1025.79
2018-02-24T14:58:32.682Z,1025.74
2018-02-24T14:59:32.589Z,1025.82
2018-02-24T15:01:24.412Z,1025.75
2018-02-24T15:02:24.270Z,1025.75
2018-02-24T15:04:16.107Z,1025.69
2018-02-24T15:05:16.038Z,1025.77
2018-02-24T15:07:07.814Z,1025.79
2018-02-24T15:08:07.706Z,1025.79
2018-02-24T15:09:59.577Z,1025.74
2018-02-24T15:10:59.487Z,1025.76
2018-02-24T15:12:51.269Z,1025.71
2018-02-24T15:13:51.174Z,1025.70
2018-02-24T15:15:42.909Z,1025.72
2018-02-24T15:16:42.840Z,1025.71
2018-02-24T15:18:34.659Z,1025.70
2018-02-24T15:19:34.567Z,1025.71
2018-02-24T15:21:26.375Z,1025.71
2018-02-24T15:22:26.254Z,1026.02
2018-02-24T15:24:18.024Z,1025.79
2018-02-24T15:25:17.956Z,1025.78
2018-02-24T15:27:09.701Z,1025.79
2018-02-24T15:28:09.633Z,1025.76
2018-02-24T15:30:01.426Z,1025.80
2018-02-24T15:31:01.330Z,1025.81
2018-02-24T15:32:53.108Z,1025.77
2018-02-24T15:33:53.033Z,1025.84
2018-02-24T15:35:45.169Z,1026.08
2018-02-24T15:36:44.787Z,1025.92
2018-02-24T15:38:36.472Z,1025.90
2018-02-24T15:39:36.376Z,1025.99
2018-02-24T15:41:28.130Z,1025.99
2018-02-24T15:42:28.054Z,1025.97
2018-02-24T15:44:19.871Z,1026.05
2018-02-24T15:45:19.738Z,1025.95
2018-02-24T15:47:11.509Z,1026.00
2018-02-24T15:48:11.436Z,1026.02
2018-02-24T15:50:03.273Z,1026.01
2018-02-24T15:51:03.184Z,1026.03
2018-02-24T15:52:54.928Z,1025.97
2018-02-24T15:53:54.848Z,1025.96
2018-02-24T15:55:46.954Z,1026.00
2018-02-24T15:56:46.893Z,1026.04
2018-02-24T15:58:38.627Z,1026.02
2018-02-24T15:59:38.548Z,1026.03
2018-02-24T16:01:30.371Z,1026.03
2018-02-24T16:02:30.280Z,1026.04
2018-02-24T16:04:22.027Z,1026.00
2018-02-24T16:05:21.960Z,1026.07
2018-02-24T16:07:13.755Z,1026.07
2018-02-24T16:08:13.629Z,1026.09
2018-02-24T16:10:05.453Z,1026.09
2018-02-24T16:11:05.487Z,1026.16
2018-02-24T16:12:57.163Z,1026.12
2018-02-24T16:13:57.024Z,1026.14
2018-02-24T16:15:48.802Z,1026.14
2018-02-24T16:16:48.931Z,1026.22
2018-02-24T16:18:40.464Z,1026.24
2018-02-24T16:19:40.394Z,1026.23
2018-02-24T16:21:32.167Z,1026.31
2018-02-24T16:22:32.091Z,1026.31
2018-02-24T16:24:23.905Z,1026.31
2018-02-24T16:25:23.790Z,1026.34
2018-02-24T16:27:15.560Z,1026.31
2018-02-24T16:28:15.474Z,1026.28
2018-02-24T16:30:07.229Z,1026.29
2018-02-24T16:31:07.140Z,1026.34
2018-02-24T16:32:59.015Z,1026.32
2018-02-24T16:33:58.939Z,1026.40
2018-02-24T16:35:50.711Z,1026.41
2018-02-24T16:36:50.631Z,1026.39
2018-02-24T16:38:42.397Z,1026.41
2018-02-24T16:39:42.311Z,1026.40
2018-02-24T16:41:34.060Z,1026.40
2018-02-24T16:42:33.973Z,1026.41
2018-02-24T16:44:25.725Z,1026.42
2018-02-24T16:45:25.648Z,1026.43
2018-02-24T16:47:17.400Z,1026.41
2018-02-24T16:48:17.310Z,1026.44
2018-02-24T16:50:09.116Z,1026.40
2018-02-24T16:51:09.013Z,1026.42
2018-02-24T16:53:00.979Z,1026.45
2018-02-24T16:54:00.783Z,1026.44
2018-02-24T16:55:52.620Z,1026.51
2018-02-24T16:56:52.548Z,1026.52
2018-02-24T16:58:44.375Z,1026.53
2018-02-24T16:59:44.236Z,1026.51
2018-02-24T17:01:36.049Z,1026.55
2018-02-24T17:02:36.017Z,1026.56
2018-02-24T17:04:29.400Z,1026.53
2018-02-24T17:05:27.633Z,1026.56
2018-02-24T17:07:19.362Z,1026.58
2018-02-24T17:08:19.294Z,1026.62
2018-02-24T17:10:11.138Z,1026.61
2018-02-24T17:11:11.038Z,1026.66
2018-02-24T17:13:02.807Z,1026.62
2018-02-24T17:14:02.703Z,1026.63
2018-02-24T17:15:54.444Z,1026.66
2018-02-24T17:16:54.422Z,1026.67
2018-02-24T17:18:46.178Z,1026.73